Time;durP1;ratioP1;P1;durP2;ratioP2;P2;SDS_P1;SDS_P2;PMS_P1;PMS_P2;Temp;Humidity;BMP_temperature;BMP_pressure;BME280_temperature;BME280_humidity;BME280_pressure;Samples;Min_cycle;Max_cycle;Signal;HPM_P1;HPM_P2
2020/12/04 00:00:49;;;;;;;33.93;18.27;;;0.70;66.30;;;;;;5031409;28;20507;-83
2020/12/04 00:03:15;;;;;;;34.03;17.93;;;0.70;66.20;;;;;;5024973;28;20030;-82
2020/12/04 00:05:40;;;;;;;33.63;16.90;;;0.70;66.50;;;;;;5018334;28;20034;-82
2020/12/04 00:08:06;;;;;;;41.67;19.23;;;0.70;66.50;;;;;;5029154;28;20022;-82
2020/12/04 00:10:32;;;;;;;36.57;18.30;;;0.60;67.00;;;;;;5029815;28;20024;-82
2020/12/04 00:12:57;;;;;;;38.50;18.67;;;0.70;66.60;;;;;;5034923;28;20110;-82
2020/12/04 00:15:23;;;;;;;42.27;20.60;;;0.70;66.50;;;;;;5033950;28;20026;-82
2020/12/04 00:17:49;;;;;;;38.27;20.60;;;0.60;66.40;;;;;;5028613;28;20022;-82
2020/12/04 00:20:14;;;;;;;36.00;18.83;;;0.60;66.50;;;;;;5033251;28;20121;-83
2020/12/04 00:22:40;;;;;;;35.17;19.17;;;0.60;66.70;;;;;;5027918;28;20022;-83
2020/12/04 00:25:06;;;;;;;40.47;20.30;;;0.60;66.60;;;;;;5033303;28;20056;-83
2020/12/04 00:27:32;;;;;;;45.37;21.43;;;0.60;66.40;;;;;;5021578;28;20072;-83
2020/12/04 00:29:57;;;;;;;44.40;20.90;;;0.60;66.60;;;;;;5033899;28;20112;-83
2020/12/04 00:32:23;;;;;;;40.73;19.87;;;0.60;66.70;;;;;;5029690;28;20113;-83
2020/12/04 00:34:49;;;;;;;44.13;21.80;;;0.60;66.60;;;;;;5019511;28;20084;-83
2020/12/04 00:37:14;;;;;;;42.50;20.97;;;0.60;66.60;;;;;;5035069;28;20029;-83
2020/12/04 00:39:40;;;;;;;46.47;23.47;;;0.60;66.70;;;;;;5033420;28;20022;-83
2020/12/04 00:42:06;;;;;;;49.23;23.03;;;0.60;66.50;;;;;;5033253;28;20110;-83
2020/12/04 00:44:31;;;;;;;48.80;22.33;;;0.60;66.50;;;;;;5019046;28;20112;-83
2020/12/04 00:47:01;;;;;;;46.47;21.03;;;0.60;66.70;;;;;;5021402;28;20084;-83
2020/12/04 00:49:27;;;;;;;46.40;22.47;;;0.60;66.90;;;;;;5030292;28;20025;-83
2020/12/04 00:51:53;;;;;;;42.33;20.70;;;0.60;66.80;;;;;;5022491;28;20269;-83
2020/12/04 00:54:19;;;;;;;39.27;21.77;;;0.60;66.70;;;;;;5028196;28;20291;-83
2020/12/04 00:56:44;;;;;;;41.00;21.30;;;0.60;66.80;;;;;;5028437;28;20025;-83
2020/12/04 00:59:10;;;;;;;41.53;22.00;;;0.60;67.00;;;;;;5025286;28;20026;-83
2020/12/04 01:01:36;;;;;;;42.47;22.80;;;0.60;66.80;;;;;;5024093;28;20029;-82
2020/12/04 01:04:01;;;;;;;48.20;21.43;;;0.60;66.80;;;;;;5031299;28;20036;-82
2020/12/04 01:06:27;;;;;;;39.23;20.10;;;0.60;66.80;;;;;;5023271;28;20120;-82
2020/12/04 01:08:53;;;;;;;43.93;21.60;;;0.60;66.70;;;;;;5022815;28;20022;-82
2020/12/04 01:11:20;;;;;;;42.60;20.10;;;0.60;66.70;;;;;;5032708;28;20601;-82
2020/12/04 01:13:45;;;;;;;47.47;22.30;;;0.50;66.80;;;;;;5032545;28;20022;-82
2020/12/04 01:16:11;;;;;;;89.10;26.10;;;0.60;66.70;;;;;;5032587;28;20286;-83
2020/12/04 01:18:38;;;;;;;48.80;22.00;;;0.50;66.90;;;;;;5032712;28;20033;-82
2020/12/04 01:21:05;;;;;;;43.80;20.60;;;0.50;67.10;;;;;;5031932;28;20021;-82
2020/12/04 01:23:31;;;;;;;47.53;20.30;;;0.60;67.10;;;;;;5026119;28;20807;-82
2020/12/04 01:25:56;;;;;;;51.97;24.33;;;0.60;67.10;;;;;;5031016;28;20319;-82
2020/12/04 01:28:22;;;;;;;48.60;21.83;;;0.60;67.10;;;;;;5016256;28;20022;-82
2020/12/04 01:30:48;;;;;;;47.27;21.97;;;0.60;67.00;;;;;;5024301;28;20559;-83
2020/12/04 01:33:14;;;;;;;44.67;19.83;;;0.60;67.00;;;;;;5027341;28;20026;-82
2020/12/04 01:35:40;;;;;;;49.43;22.33;;;0.60;67.00;;;;;;5018809;28;20831;-82
2020/12/04 01:38:05;;;;;;;42.37;20.10;;;0.60;67.00;;;;;;5014767;28;20335;-82
2020/12/04 01:40:33;;;;;;;44.53;20.73;;;0.60;67.00;;;;;;5026523;28;20068;-82
2020/12/04 01:42:59;;;;;;;42.53;20.83;;;0.60;67.00;;;;;;5018207;28;20042;-81
2020/12/04 01:45:25;;;;;;;44.53;22.23;;;0.50;67.00;;;;;;5017998;28;20289;-82
2020/12/04 01:47:52;;;;;;;43.70;19.90;;;0.50;66.80;;;;;;5024039;28;20631;-82
2020/12/04 01:50:18;;;;;;;40.43;19.77;;;0.60;67.00;;;;;;5034116;28;20096;-82
2020/12/04 01:52:44;;;;;;;43.93;21.10;;;0.60;67.20;;;;;;5030978;28;20626;-82
2020/12/04 01:55:10;;;;;;;41.77;20.27;;;0.70;67.00;;;;;;5032589;28;20260;-83
2020/12/04 01:57:43;;;;;;;40.43;19.90;;;0.70;66.90;;;;;;5031763;28;20025;-83
2020/12/04 02:00:09;;;;;;;39.92;20.08;;;0.70;66.90;;;;;;5032341;28;20260;-83
2020/12/04 02:02:34;;;;;;;46.63;20.87;;;0.70;66.80;;;;;;5022833;28;20033;-83
2020/12/04 02:05:00;;;;;;;45.10;21.33;;;0.60;66.80;;;;;;5029775;28;20030;-83
2020/12/04 02:07:34;;;;;;;41.80;21.27;;;0.70;66.80;;;;;;5031055;28;20028;-82
2020/12/04 02:10:09;;;;;;;42.50;19.93;;;0.70;66.80;;;;;;5022182;28;20427;-83
2020/12/04 02:12:36;;;;;;;45.13;22.80;;;0.80;67.00;;;;;;5018067;28;20269;-82
2020/12/04 02:15:03;;;;;;;46.43;22.67;;;0.80;66.80;;;;;;5030936;28;20319;-83
2020/12/04 02:17:33;;;;;;;47.43;22.73;;;0.80;66.90;;;;;;5022279;28;20285;-83
2020/12/04 02:19:59;;;;;;;48.53;24.67;;;0.80;67.00;;;;;;5022105;28;20264;-83
2020/12/04 02:22:32;;;;;;;49.17;25.40;;;0.90;67.00;;;;;;5032141;28;20294;-83
2020/12/04 02:24:58;;;;;;;47.47;25.05;;;0.90;67.10;;;;;;5032007;28;20288;-83
2020/12/04 02:27:24;;;;;;;52.17;26.47;;;0.90;67.00;;;;;;5028777;28;20025;-83
2020/12/04 02:29:50;;;;;;;50.33;27.10;;;0.90;67.20;;;;;;5028608;28;20281;-83
2020/12/04 02:32:15;;;;;;;56.27;28.67;;;0.90;67.20;;;;;;5022737;28;20037;-83
2020/12/04 02:34:42;;;;;;;50.83;26.03;;;1.00;67.30;;;;;;5031269;28;20179;-83
2020/12/04 02:37:08;;;;;;;53.80;27.60;;;1.00;67.30;;;;;;5027761;28;20036;-83
2020/12/04 02:39:35;;;;;;;50.30;23.83;;;1.00;67.20;;;;;;5022089;28;20805;-83
2020/12/04 02:42:01;;;;;;;46.43;24.30;;;1.00;67.40;;;;;;5021572;28;20292;-83
2020/12/04 02:44:27;;;;;;;44.20;23.17;;;1.00;67.30;;;;;;5023065;28;20804;-84
2020/12/04 02:46:53;;;;;;;46.07;23.70;;;1.00;67.40;;;;;;5032858;28;20284;-83
2020/12/04 02:49:22;;;;;;;61.83;30.97;;;1.00;67.30;;;;;;5035683;28;20021;-84
2020/12/04 02:51:48;;;;;;;72.90;36.33;;;1.00;67.40;;;;;;5036405;28;20044;-84
2020/12/04 02:54:17;;;;;;;79.20;38.43;;;1.00;67.30;;;;;;5035243;28;20275;-83
2020/12/04 02:56:43;;;;;;;68.97;32.60;;;1.00;67.30;;;;;;5024306;28;20323;-84
2020/12/04 02:59:10;;;;;;;146.23;34.63;;;1.00;67.30;;;;;;5015571;28;20265;-83
2020/12/04 03:01:36;;;;;;;45.20;22.90;;;1.00;67.20;;;;;;5030070;28;20315;-83
2020/12/04 03:04:02;;;;;;;48.30;24.17;;;1.10;67.70;;;;;;5031173;28;20849;-84
2020/12/04 03:06:28;;;;;;;43.83;21.43;;;1.20;67.40;;;;;;5032219;28;20794;-84
2020/12/04 03:08:54;;;;;;;40.07;21.73;;;1.10;67.20;;;;;;5026854;28;20288;-83
2020/12/04 03:11:21;;;;;;;41.00;20.90;;;1.10;67.50;;;;;;5030970;28;20268;-83
2020/12/04 03:13:47;;;;;;;46.70;23.60;;;1.10;67.30;;;;;;5031066;28;20052;-84
2020/12/04 03:16:14;;;;;;;44.87;23.13;;;1.10;67.50;;;;;;5023182;28;20318;-84
2020/12/04 03:18:40;;;;;;;38.50;19.87;;;1.10;67.30;;;;;;5034940;28;20029;-84
2020/12/04 03:21:06;;;;;;;35.90;19.87;;;1.10;67.50;;;;;;5028558;28;20375;-84
2020/12/04 03:23:32;;;;;;;34.50;18.60;;;1.10;67.40;;;;;;5032062;28;20078;-84
2020/12/04 03:25:58;;;;;;;39.37;20.50;;;1.10;67.60;;;;;;5034442;28;20284;-84
2020/12/04 03:28:23;;;;;;;37.07;19.40;;;1.20;67.80;;;;;;5030995;28;20143;-84
2020/12/04 03:30:49;;;;;;;39.83;20.93;;;1.20;67.50;;;;;;5035031;28;20025;-84
2020/12/04 03:33:15;;;;;;;38.83;21.27;;;1.20;67.50;;;;;;5035468;28;20032;-84
2020/12/04 03:35:40;;;;;;;38.53;19.97;;;1.20;67.40;;;;;;5034306;28;20036;-84
2020/12/04 03:38:06;;;;;;;39.53;21.20;;;1.20;67.50;;;;;;5033587;28;20025;-84
2020/12/04 03:40:32;;;;;;;42.87;22.60;;;1.30;67.40;;;;;;5038441;28;20084;-84
2020/12/04 03:42:57;;;;;;;49.33;24.53;;;1.30;67.30;;;;;;5021674;28;20069;-83
2020/12/04 03:45:23;;;;;;;44.70;23.40;;;1.30;67.40;;;;;;5029487;28;20033;-84
2020/12/04 03:47:49;;;;;;;49.20;24.13;;;1.30;67.50;;;;;;5031930;28;20078;-84
2020/12/04 03:50:15;;;;;;;42.50;24.07;;;1.30;67.50;;;;;;5034689;28;20430;-84
2020/12/04 03:52:40;;;;;;;43.03;22.30;;;1.30;67.50;;;;;;5023716;28;20383;-83
2020/12/04 03:55:06;;;;;;;43.90;23.83;;;1.20;67.40;;;;;;5029902;28;20026;-83
2020/12/04 03:57:32;;;;;;;52.70;25.77;;;1.20;67.50;;;;;;5032002;28;20032;-83
2020/12/04 03:59:58;;;;;;;47.43;22.37;;;1.20;67.50;;;;;;5027161;28;20026;-84
2020/12/04 04:02:24;;;;;;;44.30;22.80;;;1.20;67.60;;;;;;5028797;28;20079;-84
2020/12/04 04:04:50;;;;;;;37.53;20.53;;;1.20;67.70;;;;;;5025569;28;20034;-84
2020/12/04 04:07:16;;;;;;;44.00;21.77;;;1.20;67.70;;;;;;5029852;28;20037;-84
2020/12/04 04:09:42;;;;;;;42.60;22.93;;;1.30;68.10;;;;;;5026714;28;20281;-84
2020/12/04 04:12:09;;;;;;;49.43;23.77;;;1.30;68.10;;;;;;5033772;28;20066;-84
2020/12/04 04:14:35;;;;;;;42.77;23.37;;;1.40;68.10;;;;;;5024639;28;20280;-84
2020/12/04 04:17:00;;;;;;;41.37;22.43;;;1.40;68.00;;;;;;5023317;28;20021;-84
2020/12/04 04:19:26;;;;;;;42.60;22.37;;;1.50;68.00;;;;;;5034398;28;20391;-84
2020/12/04 04:21:53;;;;;;;43.57;23.93;;;1.50;67.70;;;;;;5024774;28;20028;-83
2020/12/04 04:24:19;;;;;;;37.00;21.13;;;1.50;67.70;;;;;;5033613;28;20463;-84
2020/12/04 04:26:48;;;;;;;43.93;24.30;;;1.50;67.90;;;;;;5029634;28;20037;-85
2020/12/04 04:29:15;;;;;;;42.03;23.13;;;1.50;67.90;;;;;;5022744;28;20340;-84
2020/12/04 04:31:40;;;;;;;47.17;23.77;;;1.40;67.70;;;;;;5030264;28;20282;-84
2020/12/04 04:34:06;;;;;;;42.20;23.00;;;1.40;67.70;;;;;;5032345;28;20029;-85
2020/12/04 04:36:32;;;;;;;45.53;25.80;;;1.40;67.90;;;;;;5028103;28;20025;-85
2020/12/04 04:38:58;;;;;;;43.80;22.50;;;1.40;67.90;;;;;;5024741;28;20524;-85
2020/12/04 04:41:24;;;;;;;44.60;22.10;;;1.40;68.00;;;;;;5023052;28;20073;-85
2020/12/04 04:43:50;;;;;;;43.27;23.60;;;1.40;68.10;;;;;;5032443;28;20506;-84
2020/12/04 04:46:19;;;;;;;41.63;23.53;;;1.40;68.10;;;;;;5033736;28;20026;-84
2020/12/04 04:48:52;;;;;;;47.07;25.03;;;1.50;68.00;;;;;;5033864;28;20388;-85
2020/12/04 04:51:20;;;;;;;42.80;24.15;;;1.50;68.00;;;;;;5032893;28;20040;-85
2020/12/04 04:53:54;;;;;;;41.33;22.20;;;1.50;67.80;;;;;;5041215;28;20495;-84
2020/12/04 04:56:20;;;;;;;42.70;22.83;;;1.50;67.80;;;;;;5013362;28;20025;-85
2020/12/04 04:58:46;;;;;;;41.30;21.90;;;1.50;68.00;;;;;;5024076;28;20125;-85
2020/12/04 05:01:12;;;;;;;47.13;23.43;;;1.50;68.10;;;;;;5023616;28;20018;-83
2020/12/04 05:03:37;;;;;;;40.67;22.37;;;1.50;67.90;;;;;;5032875;28;20047;-85
2020/12/04 05:06:03;;;;;;;42.83;23.53;;;1.50;67.90;;;;;;5016186;28;20029;-85
2020/12/04 05:08:29;;;;;;;40.37;22.87;;;1.50;68.00;;;;;;5023346;28;20484;-85
2020/12/04 05:11:08;;;;;;;44.53;24.37;;;1.50;68.20;;;;;;5033000;28;20108;-85
2020/12/04 05:13:34;;;;;;;42.50;24.03;;;1.60;68.30;;;;;;5021985;28;20018;-85
2020/12/04 05:15:59;;;;;;;44.37;24.53;;;1.70;68.10;;;;;;5032188;28;20718;-85
2020/12/04 05:18:25;;;;;;;46.07;24.77;;;1.70;67.80;;;;;;5031573;28;20095;-85
2020/12/04 05:20:52;;;;;;;44.67;24.00;;;1.60;67.80;;;;;;5022111;28;20036;-85
2020/12/04 05:23:18;;;;;;;40.37;22.40;;;1.60;68.00;;;;;;5033497;28;20535;-85
2020/12/04 05:25:52;;;;;;;43.53;24.50;;;1.60;67.90;;;;;;5032819;28;20029;-84
2020/12/04 05:28:23;;;;;;;47.63;24.50;;;1.60;68.10;;;;;;5033844;28;20451;-85
2020/12/04 05:31:04;;;;;;;48.27;24.60;;;1.60;68.40;;;;;;5032263;28;20029;-85
2020/12/04 05:33:30;;;;;;;35.70;20.53;;;1.60;68.40;;;;;;5032008;28;20701;-85
2020/12/04 05:35:56;;;;;;;41.40;21.83;;;1.60;68.20;;;;;;5014242;28;20540;-84
2020/12/04 05:38:22;;;;;;;38.90;19.33;;;1.70;68.50;;;;;;5023370;28;20116;-84
2020/12/04 05:41:05;;;;;;;39.00;20.67;;;1.90;68.50;;;;;;5032618;28;20369;-85
2020/12/04 05:43:36;;;;;;;38.17;21.70;;;1.90;68.20;;;;;;5032005;28;20045;-86
2020/12/04 05:46:17;;;;;;;40.37;22.57;;;1.90;67.90;;;;;;5027769;28;20117;-86
2020/12/04 05:49:07;;;;;;;43.90;23.70;;;1.90;68.10;;;;;;5021939;28;20041;-84
2020/12/04 05:51:34;;;;;;;39.50;22.33;;;1.80;68.40;;;;;;5031104;28;20287;-83
2020/12/04 05:54:02;;;;;;;45.23;22.90;;;1.80;68.30;;;;;;5028661;28;20034;-83
2020/12/04 05:56:32;;;;;;;43.23;23.63;;;1.80;68.30;;;;;;5033778;28;20443;-82
2020/12/04 05:59:01;;;;;;;43.80;23.30;;;1.80;68.30;;;;;;5028230;28;20061;-83
2020/12/04 06:01:26;;;;;;;42.23;23.93;;;1.80;68.30;;;;;;5029864;28;20033;-82
2020/12/04 06:03:56;;;;;;;38.13;22.10;;;1.80;68.90;;;;;;5028643;28;20127;-85
2020/12/04 06:06:28;;;;;;;39.27;22.57;;;1.80;68.40;;;;;;5033467;28;20029;-85
2020/12/04 06:09:06;;;;;;;41.43;22.47;;;1.90;68.60;;;;;;5024372;28;20021;-84
2020/12/04 06:11:38;;;;;;;43.60;23.53;;;1.90;68.50;;;;;;5022271;28;20029;-84
2020/12/04 06:14:23;;;;;;;39.33;21.47;;;1.90;68.40;;;;;;5027493;28;20029;-81
2020/12/04 06:17:00;;;;;;;42.40;22.50;;;1.80;68.60;;;;;;5031778;28;20120;-81
2020/12/04 06:19:37;;;;;;;42.77;23.40;;;1.90;68.60;;;;;;5031079;28;20472;-82
2020/12/04 06:22:10;;;;;;;42.70;24.00;;;1.90;68.50;;;;;;5030896;28;20036;-81
2020/12/04 06:24:55;;;;;;;44.03;24.03;;;1.90;68.50;;;;;;5031614;28;20021;-81
2020/12/04 06:27:37;;;;;;;42.53;22.90;;;1.90;68.40;;;;;;5031414;28;20057;-82
2020/12/04 06:30:04;;;;;;;41.70;23.43;;;2.00;68.40;;;;;;5029505;28;20112;-83
2020/12/04 06:32:45;;;;;;;42.73;23.27;;;1.90;68.30;;;;;;5029440;28;20034;-83
2020/12/04 06:35:13;;;;;;;44.97;24.80;;;1.90;68.20;;;;;;5011860;28;20481;-83
2020/12/04 06:37:43;;;;;;;47.23;24.57;;;1.80;68.30;;;;;;5016482;28;20041;-83
2020/12/04 06:40:28;;;;;;;40.10;22.37;;;1.90;68.60;;;;;;5021078;28;20033;-83
2020/12/04 06:42:56;;;;;;;61.97;33.00;;;1.90;69.00;;;;;;5020591;28;20056;-83
2020/12/04 06:45:22;;;;;;;49.93;25.90;;;2.00;68.90;;;;;;5026364;28;21321;-82
2020/12/04 06:48:10;;;;;;;53.10;25.73;;;2.00;68.60;;;;;;5023629;28;20388;-82
2020/12/04 06:50:40;;;;;;;49.70;26.23;;;2.00;68.60;;;;;;5015191;28;20380;-82
2020/12/04 06:53:11;;;;;;;54.10;29.47;;;2.00;68.70;;;;;;5022720;28;20021;-82
2020/12/04 06:55:38;;;;;;;47.93;26.53;;;2.00;68.70;;;;;;5014045;28;20045;-82
2020/12/04 06:58:04;;;;;;;47.67;25.67;;;2.10;68.70;;;;;;5026614;28;20099;-82
2020/12/04 07:00:30;;;;;;;47.67;27.30;;;2.10;68.70;;;;;;5032378;28;20025;-82
2020/12/04 07:02:58;;;;;;;46.90;26.00;;;2.10;68.70;;;;;;5023856;28;20079;-82
2020/12/04 07:05:25;;;;;;;46.83;23.17;;;2.10;68.60;;;;;;5024595;28;20034;-82
2020/12/04 07:08:01;;;;;;;45.27;23.83;;;2.20;68.60;;;;;;5023843;28;20026;-82
2020/12/04 07:10:30;;;;;;;43.10;22.53;;;2.20;68.70;;;;;;5014337;28;20500;-82
2020/12/04 07:13:00;;;;;;;45.23;23.83;;;2.20;68.60;;;;;;5014203;28;20080;-82
2020/12/04 07:15:30;;;;;;;44.13;23.03;;;2.20;68.50;;;;;;5028899;28;20041;-83
2020/12/04 07:17:57;;;;;;;48.43;25.83;;;2.30;68.90;;;;;;5029065;28;20028;-83
2020/12/04 07:20:34;;;;;;;56.23;26.20;;;2.30;68.80;;;;;;5028393;28;20026;-83
2020/12/04 07:23:00;;;;;;;51.27;26.27;;;2.40;68.90;;;;;;5030686;28;20113;-82
2020/12/04 07:25:26;;;;;;;53.40;28.87;;;2.40;68.80;;;;;;5031349;28;20025;-83
2020/12/04 07:27:53;;;;;;;49.07;26.87;;;2.40;68.70;;;;;;5016643;28;20018;-83
2020/12/04 07:30:21;;;;;;;46.97;25.10;;;2.50;68.90;;;;;;5021572;28;20018;-83
2020/12/04 07:32:54;;;;;;;42.90;24.70;;;2.50;68.80;;;;;;5033656;28;20407;-83
2020/12/04 07:35:21;;;;;;;40.20;22.93;;;2.50;68.70;;;;;;5035642;28;20021;-83
2020/12/04 07:37:47;;;;;;;43.77;23.43;;;2.50;68.80;;;;;;5034238;28;20503;-83
2020/12/04 07:40:15;;;;;;;47.93;25.00;;;2.60;68.80;;;;;;5034137;28;20022;-83
2020/12/04 07:42:41;;;;;;;44.57;23.37;;;2.60;68.60;;;;;;5031408;28;20041;-83
2020/12/04 07:45:12;;;;;;;62.10;27.60;;;2.60;69.50;;;;;;5020114;28;20029;-83
2020/12/04 07:47:42;;;;;;;88.57;34.43;;;2.80;69.90;;;;;;5025155;28;20021;-83
2020/12/04 07:50:10;;;;;;;69.87;31.90;;;2.90;69.10;;;;;;5016567;28;20029;-83
2020/12/04 07:52:36;;;;;;;52.30;25.90;;;2.90;69.20;;;;;;5032169;28;20076;-83
2020/12/04 07:55:10;;;;;;;48.00;26.40;;;2.90;69.30;;;;;;5035516;28;20025;-83
2020/12/04 07:58:00;;;;;;;44.70;25.90;;;2.90;69.10;;;;;;5019240;28;20064;-83
2020/12/04 08:00:33;;;;;;;49.47;25.23;;;3.00;69.00;;;;;;5015186;28;20064;-83
2020/12/04 08:03:17;;;;;;;43.47;22.93;;;3.00;69.10;;;;;;5036151;28;20036;-83
2020/12/04 08:05:43;;;;;;;37.90;20.17;;;3.10;69.00;;;;;;5028864;28;20030;-83
2020/12/04 08:08:09;;;;;;;35.37;19.50;;;3.10;68.90;;;;;;5030748;28;20041;-83
2020/12/04 08:10:35;;;;;;;37.00;18.27;;;3.20;69.00;;;;;;5031925;28;20480;-83
2020/12/04 08:13:03;;;;;;;32.53;18.67;;;3.20;68.90;;;;;;5033345;28;20026;-83
2020/12/04 08:15:29;;;;;;;32.63;19.40;;;3.30;68.90;;;;;;5026476;28;20030;-83
2020/12/04 08:18:05;;;;;;;33.50;19.17;;;3.30;68.70;;;;;;5021823;28;20040;-83
2020/12/04 08:20:32;;;;;;;32.93;18.67;;;3.40;68.70;;;;;;5033024;28;20651;-83
2020/12/04 08:22:57;;;;;;;31.53;18.23;;;3.40;68.50;;;;;;5033201;28;20033;-83
2020/12/04 08:25:28;;;;;;;36.93;21.40;;;3.40;68.60;;;;;;5032681;28;20575;-83
2020/12/04 08:27:55;;;;;;;29.87;19.07;;;3.50;69.00;;;;;;5033459;28;20041;-83
2020/12/04 08:30:25;;;;;;;32.77;19.87;;;3.60;68.90;;;;;;5023380;28;20029;-83
2020/12/04 08:32:54;;;;;;;31.60;18.17;;;3.60;68.70;;;;;;5021255;28;20116;-83
2020/12/04 08:35:22;;;;;;;34.03;19.67;;;3.70;68.50;;;;;;5033885;28;20109;-83
2020/12/04 08:37:50;;;;;;;30.10;18.87;;;3.70;68.50;;;;;;5028781;28;20025;-83
2020/12/04 08:40:31;;;;;;;36.37;18.10;;;3.80;68.50;;;;;;5029620;28;20022;-83
2020/12/04 08:43:12;;;;;;;31.80;18.47;;;3.80;68.50;;;;;;5027177;28;20455;-83
2020/12/04 08:45:40;;;;;;;30.67;17.30;;;3.90;68.60;;;;;;5017905;28;20503;-83
2020/12/04 08:48:17;;;;;;;27.73;17.80;;;3.90;68.60;;;;;;5035597;28;20346;-83
2020/12/04 08:50:44;;;;;;;27.97;16.27;;;4.10;68.70;;;;;;5033407;28;20014;-83
2020/12/04 08:53:12;;;;;;;28.03;15.93;;;4.20;68.60;;;;;;5027909;28;20048;-83
2020/12/04 08:55:38;;;;;;;25.87;15.77;;;4.30;68.60;;;;;;5021175;28;20539;-83
2020/12/04 08:58:04;;;;;;;29.00;16.20;;;4.40;68.50;;;;;;5024904;28;20033;-83
2020/12/04 09:00:33;;;;;;;21.77;13.63;;;4.50;68.40;;;;;;5020030;28;20059;-83
2020/12/04 09:03:00;;;;;;;25.17;14.03;;;4.50;68.30;;;;;;5024614;28;20100;-83
2020/12/04 09:05:26;;;;;;;25.43;14.00;;;4.60;68.70;;;;;;5022487;28;20484;-83
2020/12/04 09:07:52;;;;;;;23.77;13.30;;;4.70;68.70;;;;;;5022412;28;20022;-82
2020/12/04 09:10:19;;;;;;;20.53;13.47;;;4.70;68.50;;;;;;5018446;28;20026;-82
2020/12/04 09:12:47;;;;;;;19.43;11.83;;;4.80;68.50;;;;;;5026006;28;20349;-82
2020/12/04 09:15:16;;;;;;;17.00;10.70;;;4.90;68.50;;;;;;5033141;28;20411;-83
2020/12/04 09:17:42;;;;;;;21.80;12.87;;;5.00;68.00;;;;;;5026670;28;20428;-83
2020/12/04 09:20:12;;;;;;;23.13;14.10;;;5.00;68.10;;;;;;5026875;28;20025;-83
2020/12/04 09:22:38;;;;;;;28.70;14.77;;;5.10;68.00;;;;;;5030453;28;20025;-83
2020/12/04 09:25:07;;;;;;;25.67;15.27;;;5.20;68.10;;;;;;5027233;28;20026;-83
2020/12/04 09:27:33;;;;;;;26.73;15.13;;;5.30;68.60;;;;;;5013400;28;20072;-83
2020/12/04 09:29:59;;;;;;;24.43;14.80;;;5.40;67.90;;;;;;5032169;28;20053;-83
2020/12/04 09:32:25;;;;;;;24.73;14.37;;;5.70;67.80;;;;;;5031014;28;20075;-83
2020/12/04 09:34:51;;;;;;;28.23;16.50;;;5.80;67.20;;;;;;5020648;28;20053;-82
2020/12/04 09:37:25;;;;;;;25.70;14.33;;;6.10;67.10;;;;;;5028526;28;20252;-83
2020/12/04 09:39:53;;;;;;;22.73;14.10;;;6.40;67.10;;;;;;5017618;28;20021;-83
2020/12/04 09:42:20;;;;;;;25.47;13.43;;;6.70;66.50;;;;;;5029611;28;20041;-83
2020/12/04 09:44:46;;;;;;;21.33;13.07;;;6.80;66.00;;;;;;5023269;28;20471;-83
2020/12/04 09:47:13;;;;;;;21.47;12.27;;;7.10;65.80;;;;;;5028556;28;20044;-82
2020/12/04 09:49:39;;;;;;;20.60;11.67;;;7.30;65.30;;;;;;5031608;28;20380;-83
2020/12/04 09:52:06;;;;;;;18.20;10.77;;;7.60;65.00;;;;;;5029446;28;20026;-83
2020/12/04 09:54:35;;;;;;;20.07;11.57;;;7.80;64.10;;;;;;5023418;28;20553;-83
2020/12/04 09:57:02;;;;;;;24.93;12.33;;;7.90;64.00;;;;;;5023039;28;20037;-83
2020/12/04 09:59:28;;;;;;;16.57;11.00;;;8.10;63.50;;;;;;5026940;28;20088;-83
2020/12/04 10:01:55;;;;;;;19.63;12.00;;;8.30;63.50;;;;;;5026922;28;20021;-83
2020/12/04 10:04:23;;;;;;;18.40;10.20;;;8.40;62.80;;;;;;5018356;28;20021;-83
2020/12/04 10:06:49;;;;;;;18.97;11.07;;;8.50;62.60;;;;;;5032389;28;20028;-83
2020/12/04 10:09:15;;;;;;;16.93;10.67;;;8.60;61.90;;;;;;5032706;28;20018;-83
2020/12/04 10:11:41;;;;;;;13.43;9.67;;;8.70;61.50;;;;;;5013674;28;20137;-82
2020/12/04 10:14:08;;;;;;;13.37;8.50;;;8.90;61.40;;;;;;5026170;28;20060;-83
2020/12/04 10:16:33;;;;;;;14.10;9.17;;;9.10;61.10;;;;;;5024822;28;20026;-83
2020/12/04 10:18:59;;;;;;;15.17;9.53;;;9.30;60.50;;;;;;5025509;28;20027;-83
2020/12/04 10:21:25;;;;;;;16.43;9.10;;;9.20;60.00;;;;;;5028632;28;20040;-83
2020/12/04 10:23:54;;;;;;;16.50;9.63;;;9.20;60.60;;;;;;5017047;28;20112;-83
2020/12/04 10:26:19;;;;;;;20.80;10.70;;;9.60;60.70;;;;;;5016265;28;20030;-83
2020/12/04 10:28:45;;;;;;;19.80;10.80;;;9.80;59.50;;;;;;5015758;28;20028;-83
2020/12/04 10:31:11;;;;;;;20.77;11.33;;;9.90;59.40;;;;;;5014639;28;20041;-83
2020/12/04 10:33:36;;;;;;;27.37;16.70;;;10.10;58.70;;;;;;5015849;28;20699;-83
2020/12/04 10:36:03;;;;;;;20.30;12.87;;;10.20;58.80;;;;;;5018879;28;20029;-83
2020/12/04 10:38:29;;;;;;;15.13;9.90;;;10.20;58.00;;;;;;5027364;28;20022;-83
2020/12/04 10:40:55;;;;;;;23.80;11.27;;;10.40;57.90;;;;;;5013012;28;20025;-83
2020/12/04 10:43:21;;;;;;;12.73;8.33;;;10.30;57.10;;;;;;5016306;28;20065;-83
2020/12/04 10:45:53;;;;;;;12.60;7.83;;;10.30;57.60;;;;;;5023978;28;20030;-83
2020/12/04 10:48:19;;;;;;;12.97;8.37;;;10.50;57.60;;;;;;5022677;28;20037;-83
2020/12/04 10:50:46;;;;;;;9.87;5.07;;;10.60;57.00;;;;;;5017166;28;20103;-83
2020/12/04 10:53:12;;;;;;;8.87;4.50;;;10.80;56.50;;;;;;5018633;28;20101;-83
2020/12/04 10:55:41;;;;;;;9.27;5.47;;;10.60;55.10;;;;;;5014468;28;20043;-83
2020/12/04 10:58:07;;;;;;;9.17;5.57;;;10.50;55.80;;;;;;5020160;28;20048;-85
2020/12/04 11:00:32;;;;;;;8.77;5.77;;;10.50;55.90;;;;;;5023448;28;20030;-83
2020/12/04 11:03:08;;;;;;;8.23;5.10;;;10.40;55.70;;;;;;5019143;28;20369;-84
2020/12/04 11:07:59;;;;;;;6.97;4.30;;;10.50;56.10;;;;;;5019618;28;20036;-84
2020/12/04 11:10:25;;;;;;;7.30;4.33;;;10.70;55.90;;;;;;5029063;28;20026;-82
2020/12/04 11:12:51;;;;;;;6.93;4.83;;;10.70;55.60;;;;;;5029896;28;20281;-83
2020/12/04 11:15:17;;;;;;;5.03;3.47;;;10.80;55.60;;;;;;5014282;28;20037;-83
2020/12/04 11:17:42;;;;;;;9.17;5.43;;;11.00;55.60;;;;;;5021454;28;20029;-83
2020/12/04 11:20:08;;;;;;;6.27;4.00;;;11.20;54.80;;;;;;5026244;28;20491;-83
2020/12/04 11:22:35;;;;;;;5.93;3.77;;;11.30;55.00;;;;;;5031418;28;20108;-83
2020/12/04 11:25:01;;;;;;;7.17;4.57;;;11.60;54.50;;;;;;5031587;28;20022;-83
2020/12/04 11:27:27;;;;;;;6.43;3.73;;;11.60;53.60;;;;;;5026101;28;20452;-83
2020/12/04 11:29:53;;;;;;;5.50;4.47;;;11.50;53.40;;;;;;5022127;28;20108;-83
2020/12/04 11:32:18;;;;;;;7.17;3.33;;;11.70;53.80;;;;;;5018991;28;20435;-83
2020/12/04 11:34:44;;;;;;;8.93;3.80;;;11.90;53.20;;;;;;5014734;28;20108;-83
2020/12/04 11:37:11;;;;;;;5.00;3.40;;;11.90;52.60;;;;;;5034202;28;20025;-83
2020/12/04 11:39:39;;;;;;;5.70;3.70;;;11.90;52.90;;;;;;5022248;28;20022;-83
2020/12/04 11:42:09;;;;;;;6.33;3.60;;;11.90;52.30;;;;;;5012892;28;20048;-83
2020/12/04 11:44:35;;;;;;;6.37;4.00;;;11.90;52.40;;;;;;5023091;28;20109;-83
2020/12/04 11:47:01;;;;;;;7.30;3.73;;;11.90;52.70;;;;;;5032247;28;20112;-83
2020/12/04 11:49:27;;;;;;;7.87;4.30;;;12.00;52.50;;;;;;5028332;28;20099;-83
2020/12/04 11:51:53;;;;;;;8.83;4.50;;;12.00;51.80;;;;;;5027256;28;20021;-83
2020/12/04 11:54:19;;;;;;;7.27;4.60;;;12.00;52.00;;;;;;5022621;28;20034;-83
2020/12/04 11:56:50;;;;;;;7.70;4.50;;;12.20;51.90;;;;;;5028313;28;20025;-83
2020/12/04 11:59:19;;;;;;;8.70;4.77;;;12.30;51.70;;;;;;5018841;28;20060;-83
2020/12/04 12:01:45;;;;;;;10.90;4.77;;;12.30;51.30;;;;;;5023931;28;20025;-83
2020/12/04 12:04:14;;;;;;;7.63;2.93;;;12.10;51.10;;;;;;5014633;28;20429;-83
2020/12/04 12:06:40;;;;;;;2.60;1.50;;;12.20;51.20;;;;;;5020494;28;20396;-83
2020/12/04 12:09:07;;;;;;;4.30;0.93;;;12.50;49.70;;;;;;5029115;28;20025;-83
2020/12/04 12:11:32;;;;;;;1.40;0.53;;;12.80;47.60;;;;;;5018042;28;20032;-83
2020/12/04 12:13:58;;;;;;;0.87;0.40;;;12.90;45.00;;;;;;5012499;28;20477;-83
2020/12/04 12:16:25;;;;;;;0.40;0.20;;;12.90;43.40;;;;;;5013685;28;20504;-84
2020/12/04 12:18:51;;;;;;;1.33;0.20;;;12.80;42.40;;;;;;5023498;28;20030;-84
2020/12/04 12:21:17;;;;;;;0.10;0.10;;;12.70;41.00;;;;;;5025879;28;20029;-83
2020/12/04 12:23:43;;;;;;;0.43;0.20;;;12.60;39.60;;;;;;5029304;28;20529;-84
2020/12/04 12:26:11;;;;;;;0.63;0.10;;;12.60;38.80;;;;;;5027419;28;20032;-83
2020/12/04 12:28:40;;;;;;;0.30;0.20;;;12.60;38.70;;;;;;5013855;28;20049;-83
2020/12/04 12:31:06;;;;;;;1.63;0.20;;;12.50;39.00;;;;;;5020915;28;20373;-84
2020/12/04 12:33:32;;;;;;;0.60;0.20;;;12.60;39.10;;;;;;5020751;28;20132;-83
2020/12/04 12:35:58;;;;;;;3.60;0.17;;;12.70;39.20;;;;;;5028635;28;20069;-83
2020/12/04 12:38:24;;;;;;;0.80;0.20;;;12.80;38.70;;;;;;5029764;28;20053;-83
2020/12/04 12:40:50;;;;;;;3.80;0.40;;;12.80;38.60;;;;;;5029757;28;20455;-84
2020/12/04 12:43:16;;;;;;;0.20;0.10;;;12.80;38.30;;;;;;5029236;28;20121;-83